sensor_id;sensor_type;location;lat;lon;timestamp;P1;durP1;ratioP1;P2;durP2;ratioP2
69629;SDS011;56857;52.212;5.496;2023-05-23T00:01:37;21.13;;;9.75;;
69629;SDS011;56857;52.212;5.496;2023-05-23T00:04:03;22.98;;;9.25;;
69629;SDS011;56857;52.212;5.496;2023-05-23T00:06:28;22.42;;;9.05;;
69629;SDS011;56857;52.212;5.496;2023-05-23T00:08:54;22.05;;;10.10;;
69629;SDS011;56857;52.212;5.496;2023-05-23T00:11:20;17.50;;;9.65;;
69629;SDS011;56857;52.212;5.496;2023-05-23T00:13:45;21.38;;;9.40;;
69629;SDS011;56857;52.212;5.496;2023-05-23T00:16:10;21.75;;;9.73;;
69629;SDS011;56857;52.212;5.496;2023-05-23T00:18:36;19.70;;;8.60;;
69629;SDS011;56857;52.212;5.496;2023-05-23T00:21:02;19.55;;;9.50;;
69629;SDS011;56857;52.212;5.496;2023-05-23T00:23:28;13.77;;;8.25;;
69629;SDS011;56857;52.212;5.496;2023-05-23T00:25:54;22.02;;;8.52;;
69629;SDS011;56857;52.212;5.496;2023-05-23T00:28:19;21.17;;;9.68;;
69629;SDS011;56857;52.212;5.496;2023-05-23T00:30:46;19.42;;;8.40;;
69629;SDS011;56857;52.212;5.496;2023-05-23T00:33:11;18.33;;;8.40;;
69629;SDS011;56857;52.212;5.496;2023-05-23T00:35:37;18.40;;;7.90;;
69629;SDS011;56857;52.212;5.496;2023-05-23T00:38:10;16.60;;;7.95;;
69629;SDS011;56857;52.212;5.496;2023-05-23T00:40:35;14.77;;;7.13;;
69629;SDS011;56857;52.212;5.496;2023-05-23T00:43:00;13.40;;;6.93;;
69629;SDS011;56857;52.212;5.496;2023-05-23T00:45:26;13.52;;;6.97;;
69629;SDS011;56857;52.212;5.496;2023-05-23T00:47:51;14.13;;;6.40;;
69629;SDS011;56857;52.212;5.496;2023-05-23T00:50:17;15.77;;;6.80;;
69629;SDS011;56857;52.212;5.496;2023-05-23T00:52:44;13.55;;;6.50;;
69629;SDS011;56857;52.212;5.496;2023-05-23T00:55:12;11.82;;;6.22;;
69629;SDS011;56857;52.212;5.496;2023-05-23T00:57:38;14.80;;;6.30;;
69629;SDS011;56857;52.212;5.496;2023-05-23T01:00:05;13.52;;;6.68;;
69629;SDS011;56857;52.212;5.496;2023-05-23T01:02:32;14.75;;;6.82;;
69629;SDS011;56857;52.212;5.496;2023-05-23T01:04:59;14.18;;;7.90;;
69629;SDS011;56857;52.212;5.496;2023-05-23T01:07:25;13.18;;;6.72;;
69629;SDS011;56857;52.212;5.496;2023-05-23T01:09:50;13.75;;;6.82;;
69629;SDS011;56857;52.212;5.496;2023-05-23T01:12:21;12.43;;;7.13;;
69629;SDS011;56857;52.212;5.496;2023-05-23T01:15:12;17.05;;;8.32;;
69629;SDS011;56857;52.212;5.496;2023-05-23T01:20:27;12.50;;;6.50;;
69629;SDS011;56857;52.212;5.496;2023-05-23T01:23:05;13.00;;;6.88;;
69629;SDS011;56857;52.212;5.496;2023-05-23T01:28:42;14.65;;;6.95;;
69629;SDS011;56857;52.212;5.496;2023-05-23T01:31:10;14.15;;;7.07;;
69629;SDS011;56857;52.212;5.496;2023-05-23T01:33:37;17.15;;;7.30;;
69629;SDS011;56857;52.212;5.496;2023-05-23T01:36:04;13.38;;;6.85;;
69629;SDS011;56857;52.212;5.496;2023-05-23T01:38:30;19.90;;;7.70;;
69629;SDS011;56857;52.212;5.496;2023-05-23T01:40:55;20.63;;;8.57;;
69629;SDS011;56857;52.212;5.496;2023-05-23T01:43:20;20.65;;;7.72;;
69629;SDS011;56857;52.212;5.496;2023-05-23T01:45:46;14.50;;;7.10;;
69629;SDS011;56857;52.212;5.496;2023-05-23T01:48:13;20.23;;;8.20;;
69629;SDS011;56857;52.212;5.496;2023-05-23T01:50:39;19.63;;;8.27;;
69629;SDS011;56857;52.212;5.496;2023-05-23T01:53:05;20.67;;;8.60;;
69629;SDS011;56857;52.212;5.496;2023-05-23T01:55:33;22.05;;;8.10;;
69629;SDS011;56857;52.212;5.496;2023-05-23T01:57:58;21.33;;;8.27;;
69629;SDS011;56857;52.212;5.496;2023-05-23T02:00:24;21.35;;;8.73;;
69629;SDS011;56857;52.212;5.496;2023-05-23T02:02:50;18.10;;;8.75;;
69629;SDS011;56857;52.212;5.496;2023-05-23T02:05:17;19.15;;;7.85;;
69629;SDS011;56857;52.212;5.496;2023-05-23T02:07:42;19.48;;;8.20;;
69629;SDS011;56857;52.212;5.496;2023-05-23T02:10:08;21.80;;;8.43;;
69629;SDS011;56857;52.212;5.496;2023-05-23T02:12:33;19.67;;;8.02;;
69629;SDS011;56857;52.212;5.496;2023-05-23T02:14:59;18.70;;;7.90;;
69629;SDS011;56857;52.212;5.496;2023-05-23T02:17:25;18.10;;;7.68;;
69629;SDS011;56857;52.212;5.496;2023-05-23T02:19:50;16.55;;;6.70;;
69629;SDS011;56857;52.212;5.496;2023-05-23T02:22:16;14.07;;;6.65;;
69629;SDS011;56857;52.212;5.496;2023-05-23T02:24:41;13.10;;;5.82;;
69629;SDS011;56857;52.212;5.496;2023-05-23T02:27:07;10.27;;;5.72;;
69629;SDS011;56857;52.212;5.496;2023-05-23T02:29:32;12.25;;;6.32;;
69629;SDS011;56857;52.212;5.496;2023-05-23T02:31:58;15.40;;;6.47;;
69629;SDS011;56857;52.212;5.496;2023-05-23T02:34:23;11.48;;;5.95;;
69629;SDS011;56857;52.212;5.496;2023-05-23T02:36:48;13.20;;;7.07;;
69629;SDS011;56857;52.212;5.496;2023-05-23T02:39:14;11.30;;;6.03;;
69629;SDS011;56857;52.212;5.496;2023-05-23T02:41:39;11.40;;;5.68;;
69629;SDS011;56857;52.212;5.496;2023-05-23T02:44:04;13.80;;;6.20;;
69629;SDS011;56857;52.212;5.496;2023-05-23T02:46:30;14.73;;;6.07;;
69629;SDS011;56857;52.212;5.496;2023-05-23T02:48:55;14.82;;;7.60;;
69629;SDS011;56857;52.212;5.496;2023-05-23T02:51:20;17.08;;;6.45;;
69629;SDS011;56857;52.212;5.496;2023-05-23T02:53:46;14.95;;;6.05;;
69629;SDS011;56857;52.212;5.496;2023-05-23T02:56:12;16.23;;;6.80;;
69629;SDS011;56857;52.212;5.496;2023-05-23T02:58:38;14.73;;;6.68;;
69629;SDS011;56857;52.212;5.496;2023-05-23T03:01:03;14.70;;;6.25;;
69629;SDS011;56857;52.212;5.496;2023-05-23T03:03:29;18.60;;;7.03;;
69629;SDS011;56857;52.212;5.496;2023-05-23T03:05:54;14.15;;;6.40;;
69629;SDS011;56857;52.212;5.496;2023-05-23T03:08:19;18.27;;;6.47;;
69629;SDS011;56857;52.212;5.496;2023-05-23T03:10:44;16.20;;;7.05;;
69629;SDS011;56857;52.212;5.496;2023-05-23T03:13:10;18.02;;;7.63;;
69629;SDS011;56857;52.212;5.496;2023-05-23T03:15:35;20.58;;;7.50;;
69629;SDS011;56857;52.212;5.496;2023-05-23T03:18:00;17.37;;;7.00;;
69629;SDS011;56857;52.212;5.496;2023-05-23T03:20:26;17.15;;;7.55;;
69629;SDS011;56857;52.212;5.496;2023-05-23T03:22:51;25.42;;;7.28;;
69629;SDS011;56857;52.212;5.496;2023-05-23T03:25:17;18.63;;;7.22;;
69629;SDS011;56857;52.212;5.496;2023-05-23T03:27:42;24.15;;;7.88;;
69629;SDS011;56857;52.212;5.496;2023-05-23T03:30:07;21.48;;;6.85;;
69629;SDS011;56857;52.212;5.496;2023-05-23T03:32:33;27.35;;;8.27;;
69629;SDS011;56857;52.212;5.496;2023-05-23T03:34:58;19.35;;;7.68;;
69629;SDS011;56857;52.212;5.496;2023-05-23T03:37:24;19.30;;;6.87;;
69629;SDS011;56857;52.212;5.496;2023-05-23T03:39:49;16.85;;;8.00;;
69629;SDS011;56857;52.212;5.496;2023-05-23T03:42:14;19.67;;;7.65;;
69629;SDS011;56857;52.212;5.496;2023-05-23T03:44:42;21.90;;;8.18;;
69629;SDS011;56857;52.212;5.496;2023-05-23T03:47:07;20.65;;;7.68;;
69629;SDS011;56857;52.212;5.496;2023-05-23T03:49:33;24.45;;;7.65;;
69629;SDS011;56857;52.212;5.496;2023-05-23T03:51:58;22.35;;;8.23;;
69629;SDS011;56857;52.212;5.496;2023-05-23T03:54:23;27.30;;;8.27;;
69629;SDS011;56857;52.212;5.496;2023-05-23T03:56:49;19.75;;;6.75;;
69629;SDS011;56857;52.212;5.496;2023-05-23T03:59:14;21.15;;;7.47;;
69629;SDS011;56857;52.212;5.496;2023-05-23T04:01:40;19.33;;;7.18;;
69629;SDS011;56857;52.212;5.496;2023-05-23T04:04:06;19.88;;;7.45;;
69629;SDS011;56857;52.212;5.496;2023-05-23T04:06:31;20.80;;;6.80;;
69629;SDS011;56857;52.212;5.496;2023-05-23T04:08:56;18.35;;;6.47;;
69629;SDS011;56857;52.212;5.496;2023-05-23T04:11:22;18.77;;;7.70;;
69629;SDS011;56857;52.212;5.496;2023-05-23T04:13:48;18.50;;;6.13;;
69629;SDS011;56857;52.212;5.496;2023-05-23T04:16:14;19.13;;;6.43;;
69629;SDS011;56857;52.212;5.496;2023-05-23T04:18:39;17.20;;;5.90;;
69629;SDS011;56857;52.212;5.496;2023-05-23T04:21:04;21.75;;;5.45;;
69629;SDS011;56857;52.212;5.496;2023-05-23T04:23:30;17.15;;;5.85;;
69629;SDS011;56857;52.212;5.496;2023-05-23T04:25:55;20.88;;;5.70;;
69629;SDS011;56857;52.212;5.496;2023-05-23T04:28:20;18.43;;;4.90;;
69629;SDS011;56857;52.212;5.496;2023-05-23T04:30:46;17.52;;;5.20;;
69629;SDS011;56857;52.212;5.496;2023-05-23T04:33:11;16.73;;;5.57;;
69629;SDS011;56857;52.212;5.496;2023-05-23T04:35:36;14.93;;;5.00;;
69629;SDS011;56857;52.212;5.496;2023-05-23T04:38:02;12.57;;;4.80;;
69629;SDS011;56857;52.212;5.496;2023-05-23T04:40:28;14.63;;;4.15;;
69629;SDS011;56857;52.212;5.496;2023-05-23T04:42:53;12.90;;;4.22;;
69629;SDS011;56857;52.212;5.496;2023-05-23T04:45:19;14.70;;;4.32;;
69629;SDS011;56857;52.212;5.496;2023-05-23T04:47:45;10.93;;;4.55;;
69629;SDS011;56857;52.212;5.496;2023-05-23T04:50:10;13.88;;;4.72;;
69629;SDS011;56857;52.212;5.496;2023-05-23T04:52:36;13.57;;;4.60;;
69629;SDS011;56857;52.212;5.496;2023-05-23T04:55:01;16.23;;;4.75;;
69629;SDS011;56857;52.212;5.496;2023-05-23T04:57:27;15.55;;;4.65;;
69629;SDS011;56857;52.212;5.496;2023-05-23T04:59:52;13.48;;;4.20;;
69629;SDS011;56857;52.212;5.496;2023-05-23T05:02:18;11.37;;;4.30;;
69629;SDS011;56857;52.212;5.496;2023-05-23T05:04:43;14.40;;;4.30;;
69629;SDS011;56857;52.212;5.496;2023-05-23T05:07:12;13.07;;;4.25;;
69629;SDS011;56857;52.212;5.496;2023-05-23T05:09:37;16.95;;;4.30;;
69629;SDS011;56857;52.212;5.496;2023-05-23T05:12:03;16.13;;;4.35;;
69629;SDS011;56857;52.212;5.496;2023-05-23T05:14:29;13.80;;;3.92;;
69629;SDS011;56857;52.212;5.496;2023-05-23T05:16:55;12.50;;;4.10;;
69629;SDS011;56857;52.212;5.496;2023-05-23T05:19:20;15.45;;;4.63;;
69629;SDS011;56857;52.212;5.496;2023-05-23T05:21:46;10.50;;;4.20;;
69629;SDS011;56857;52.212;5.496;2023-05-23T05:24:11;14.85;;;4.97;;
69629;SDS011;56857;52.212;5.496;2023-05-23T05:26:36;11.23;;;4.13;;
69629;SDS011;56857;52.212;5.496;2023-05-23T05:29:02;12.05;;;4.50;;
69629;SDS011;56857;52.212;5.496;2023-05-23T05:31:27;15.55;;;4.25;;
69629;SDS011;56857;52.212;5.496;2023-05-23T05:33:52;13.05;;;4.40;;
69629;SDS011;56857;52.212;5.496;2023-05-23T05:36:18;12.63;;;4.25;;
69629;SDS011;56857;52.212;5.496;2023-05-23T05:38:43;12.82;;;4.28;;
69629;SDS011;56857;52.212;5.496;2023-05-23T05:41:09;10.05;;;4.15;;
69629;SDS011;56857;52.212;5.496;2023-05-23T05:43:35;10.95;;;4.53;;
69629;SDS011;56857;52.212;5.496;2023-05-23T05:46:01;15.50;;;4.63;;
69629;SDS011;56857;52.212;5.496;2023-05-23T05:48:26;16.67;;;4.90;;
69629;SDS011;56857;52.212;5.496;2023-05-23T05:50:51;13.75;;;5.03;;
69629;SDS011;56857;52.212;5.496;2023-05-23T05:53:17;13.32;;;4.90;;
69629;SDS011;56857;52.212;5.496;2023-05-23T05:55:42;14.70;;;4.93;;
69629;SDS011;56857;52.212;5.496;2023-05-23T05:58:11;15.98;;;4.10;;
69629;SDS011;56857;52.212;5.496;2023-05-23T06:00:37;13.38;;;5.00;;
69629;SDS011;56857;52.212;5.496;2023-05-23T06:03:02;15.43;;;4.85;;
69629;SDS011;56857;52.212;5.496;2023-05-23T06:05:27;16.50;;;5.37;;
69629;SDS011;56857;52.212;5.496;2023-05-23T06:07:53;20.60;;;5.68;;
69629;SDS011;56857;52.212;5.496;2023-05-23T06:10:20;11.60;;;5.18;;
69629;SDS011;56857;52.212;5.496;2023-05-23T06:12:48;14.70;;;5.18;;
69629;SDS011;56857;52.212;5.496;2023-05-23T06:15:14;17.33;;;5.72;;
69629;SDS011;56857;52.212;5.496;2023-05-23T06:17:42;15.40;;;6.10;;
69629;SDS011;56857;52.212;5.496;2023-05-23T06:20:07;10.90;;;4.65;;
69629;SDS011;56857;52.212;5.496;2023-05-23T06:22:33;19.27;;;5.55;;
69629;SDS011;56857;52.212;5.496;2023-05-23T06:24:58;14.00;;;6.55;;
69629;SDS011;56857;52.212;5.496;2023-05-23T06:27:24;11.98;;;4.60;;
69629;SDS011;56857;52.212;5.496;2023-05-23T06:29:49;18.75;;;5.63;;
69629;SDS011;56857;52.212;5.496;2023-05-23T06:32:14;16.52;;;4.35;;
69629;SDS011;56857;52.212;5.496;2023-05-23T06:34:40;13.10;;;5.07;;
69629;SDS011;56857;52.212;5.496;2023-05-23T06:37:05;13.15;;;4.53;;
69629;SDS011;56857;52.212;5.496;2023-05-23T06:39:30;12.88;;;4.63;;
69629;SDS011;56857;52.212;5.496;2023-05-23T06:41:56;14.07;;;4.40;;
69629;SDS011;56857;52.212;5.496;2023-05-23T06:44:21;11.98;;;4.22;;
69629;SDS011;56857;52.212;5.496;2023-05-23T06:46:47;13.02;;;4.05;;
69629;SDS011;56857;52.212;5.496;2023-05-23T06:49:13;12.35;;;3.75;;
69629;SDS011;56857;52.212;5.496;2023-05-23T06:51:39;11.43;;;3.72;;
69629;SDS011;56857;52.212;5.496;2023-05-23T06:54:04;14.05;;;4.38;;
69629;SDS011;56857;52.212;5.496;2023-05-23T06:56:30;12.27;;;3.20;;
69629;SDS011;56857;52.212;5.496;2023-05-23T06:58:56;12.77;;;4.10;;
69629;SDS011;56857;52.212;5.496;2023-05-23T07:01:21;13.05;;;3.38;;
69629;SDS011;56857;52.212;5.496;2023-05-23T07:03:47;15.73;;;3.90;;
69629;SDS011;56857;52.212;5.496;2023-05-23T07:06:12;11.23;;;3.10;;
69629;SDS011;56857;52.212;5.496;2023-05-23T07:08:38;12.50;;;3.10;;
69629;SDS011;56857;52.212;5.496;2023-05-23T07:11:03;10.98;;;3.13;;
69629;SDS011;56857;52.212;5.496;2023-05-23T07:13:29;11.25;;;2.78;;
69629;SDS011;56857;52.212;5.496;2023-05-23T07:15:55;12.37;;;2.90;;
69629;SDS011;56857;52.212;5.496;2023-05-23T07:18:20;10.68;;;2.47;;
69629;SDS011;56857;52.212;5.496;2023-05-23T07:20:46;14.57;;;3.20;;
69629;SDS011;56857;52.212;5.496;2023-05-23T07:23:11;14.43;;;2.92;;
69629;SDS011;56857;52.212;5.496;2023-05-23T07:25:36;12.37;;;2.63;;
69629;SDS011;56857;52.212;5.496;2023-05-23T07:28:02;14.40;;;3.00;;
69629;SDS011;56857;52.212;5.496;2023-05-23T07:30:36;12.55;;;2.95;;
69629;SDS011;56857;52.212;5.496;2023-05-23T07:33:02;11.95;;;2.72;;
69629;SDS011;56857;52.212;5.496;2023-05-23T07:35:27;13.93;;;3.05;;
69629;SDS011;56857;52.212;5.496;2023-05-23T07:37:52;15.27;;;3.35;;
69629;SDS011;56857;52.212;5.496;2023-05-23T07:40:18;13.90;;;2.72;;
69629;SDS011;56857;52.212;5.496;2023-05-23T07:42:44;10.50;;;2.63;;
69629;SDS011;56857;52.212;5.496;2023-05-23T07:45:12;13.57;;;3.20;;
69629;SDS011;56857;52.212;5.496;2023-05-23T07:47:38;14.23;;;3.58;;
69629;SDS011;56857;52.212;5.496;2023-05-23T07:50:03;14.30;;;3.17;;
69629;SDS011;56857;52.212;5.496;2023-05-23T07:52:30;18.15;;;4.13;;
69629;SDS011;56857;52.212;5.496;2023-05-23T07:54:58;12.38;;;2.58;;
69629;SDS011;56857;52.212;5.496;2023-05-23T07:57:24;21.42;;;3.25;;
69629;SDS011;56857;52.212;5.496;2023-05-23T07:59:51;14.48;;;2.58;;
69629;SDS011;56857;52.212;5.496;2023-05-23T08:02:17;13.18;;;2.90;;
69629;SDS011;56857;52.212;5.496;2023-05-23T08:04:43;13.32;;;2.75;;
69629;SDS011;56857;52.212;5.496;2023-05-23T08:07:09;14.25;;;2.58;;
69629;SDS011;56857;52.212;5.496;2023-05-23T08:09:38;12.70;;;2.67;;
69629;SDS011;56857;52.212;5.496;2023-05-23T08:12:04;12.45;;;3.03;;
69629;SDS011;56857;52.212;5.496;2023-05-23T08:14:36;14.68;;;2.92;;
69629;SDS011;56857;52.212;5.496;2023-05-23T08:17:04;15.27;;;3.95;;
69629;SDS011;56857;52.212;5.496;2023-05-23T08:19:31;12.13;;;2.92;;
69629;SDS011;56857;52.212;5.496;2023-05-23T08:21:56;10.13;;;2.47;;
69629;SDS011;56857;52.212;5.496;2023-05-23T08:24:21;10.07;;;2.50;;
69629;SDS011;56857;52.212;5.496;2023-05-23T08:26:47;12.50;;;3.22;;
69629;SDS011;56857;52.212;5.496;2023-05-23T08:29:13;10.70;;;2.90;;
69629;SDS011;56857;52.212;5.496;2023-05-23T08:31:39;12.93;;;2.78;;
69629;SDS011;56857;52.212;5.496;2023-05-23T08:34:05;12.73;;;2.70;;
69629;SDS011;56857;52.212;5.496;2023-05-23T08:36:30;11.93;;;3.05;;
69629;SDS011;56857;52.212;5.496;2023-05-23T08:38:56;15.60;;;3.30;;
69629;SDS011;56857;52.212;5.496;2023-05-23T08:41:22;10.27;;;3.05;;
69629;SDS011;56857;52.212;5.496;2023-05-23T08:43:48;18.45;;;3.00;;
69629;SDS011;56857;52.212;5.496;2023-05-23T08:46:17;10.68;;;2.42;;
69629;SDS011;56857;52.212;5.496;2023-05-23T08:48:43;14.38;;;2.95;;
69629;SDS011;56857;52.212;5.496;2023-05-23T08:51:15;11.70;;;3.45;;
69629;SDS011;56857;52.212;5.496;2023-05-23T08:53:41;13.95;;;2.60;;
69629;SDS011;56857;52.212;5.496;2023-05-23T08:56:12;11.65;;;3.15;;
69629;SDS011;56857;52.212;5.496;2023-05-23T08:58:38;13.68;;;2.80;;
69629;SDS011;56857;52.212;5.496;2023-05-23T09:01:04;15.95;;;3.10;;
69629;SDS011;56857;52.212;5.496;2023-05-23T09:03:31;14.70;;;3.05;;
69629;SDS011;56857;52.212;5.496;2023-05-23T09:05:56;16.15;;;2.95;;
69629;SDS011;56857;52.212;5.496;2023-05-23T09:08:22;14.38;;;2.88;;
69629;SDS011;56857;52.212;5.496;2023-05-23T09:10:48;10.20;;;2.97;;
69629;SDS011;56857;52.212;5.496;2023-05-23T09:13:13;15.88;;;3.35;;
69629;SDS011;56857;52.212;5.496;2023-05-23T09:15:46;15.47;;;2.97;;
69629;SDS011;56857;52.212;5.496;2023-05-23T09:18:20;12.93;;;2.90;;
69629;SDS011;56857;52.212;5.496;2023-05-23T09:20:46;15.90;;;3.30;;
69629;SDS011;56857;52.212;5.496;2023-05-23T09:23:12;12.70;;;3.28;;
69629;SDS011;56857;52.212;5.496;2023-05-23T09:25:44;18.95;;;3.53;;
69629;SDS011;56857;52.212;5.496;2023-05-23T09:28:11;11.48;;;3.17;;
69629;SDS011;56857;52.212;5.496;2023-05-23T09:30:37;15.00;;;3.00;;
69629;SDS011;56857;52.212;5.496;2023-05-23T09:33:03;12.25;;;2.92;;
69629;SDS011;56857;52.212;5.496;2023-05-23T09:35:28;15.45;;;3.28;;
69629;SDS011;56857;52.212;5.496;2023-05-23T09:37:55;13.93;;;3.10;;
69629;SDS011;56857;52.212;5.496;2023-05-23T09:40:21;12.77;;;2.85;;
69629;SDS011;56857;52.212;5.496;2023-05-23T09:42:52;12.23;;;3.30;;
69629;SDS011;56857;52.212;5.496;2023-05-23T09:45:18;16.17;;;2.60;;
69629;SDS011;56857;52.212;5.496;2023-05-23T09:47:50;13.18;;;3.20;;
69629;SDS011;56857;52.212;5.496;2023-05-23T09:50:17;16.05;;;3.05;;
69629;SDS011;56857;52.212;5.496;2023-05-23T09:52:42;14.32;;;2.97;;
69629;SDS011;56857;52.212;5.496;2023-05-23T09:55:08;11.87;;;3.03;;
69629;SDS011;56857;52.212;5.496;2023-05-23T09:57:36;11.00;;;2.60;;
69629;SDS011;56857;52.212;5.496;2023-05-23T10:00:06;11.82;;;3.30;;
69629;SDS011;56857;52.212;5.496;2023-05-23T10:05:07;12.23;;;2.75;;
69629;SDS011;56857;52.212;5.496;2023-05-23T10:07:37;12.98;;;3.00;;
69629;SDS011;56857;52.212;5.496;2023-05-23T10:10:03;13.25;;;3.28;;
69629;SDS011;56857;52.212;5.496;2023-05-23T10:12:36;13.43;;;3.03;;
69629;SDS011;56857;52.212;5.496;2023-05-23T10:15:06;12.52;;;2.92;;
69629;SDS011;56857;52.212;5.496;2023-05-23T10:20:07;12.23;;;3.40;;
69629;SDS011;56857;52.212;5.496;2023-05-23T10:22:35;22.23;;;3.17;;
69629;SDS011;56857;52.212;5.496;2023-05-23T10:25:02;14.30;;;2.60;;
69629;SDS011;56857;52.212;5.496;2023-05-23T10:27:28;12.73;;;2.72;;
69629;SDS011;56857;52.212;5.496;2023-05-23T10:29:53;16.58;;;3.08;;
69629;SDS011;56857;52.212;5.496;2023-05-23T10:32:19;12.30;;;2.63;;
69629;SDS011;56857;52.212;5.496;2023-05-23T10:43:21;14.18;;;3.13;;
69629;SDS011;56857;52.212;5.496;2023-05-23T10:45:53;15.43;;;3.42;;
69629;SDS011;56857;52.212;5.496;2023-05-23T10:48:30;14.38;;;3.92;;
69629;SDS011;56857;52.212;5.496;2023-05-23T10:51:07;13.82;;;2.80;;
69629;SDS011;56857;52.212;5.496;2023-05-23T10:53:34;11.57;;;3.47;;
69629;SDS011;56857;52.212;5.496;2023-05-23T10:56:05;18.80;;;3.75;;
69629;SDS011;56857;52.212;5.496;2023-05-23T10:58:32;14.70;;;3.22;;
69629;SDS011;56857;52.212;5.496;2023-05-23T11:00:59;12.70;;;2.95;;
69629;SDS011;56857;52.212;5.496;2023-05-23T11:03:33;10.55;;;2.42;;
69629;SDS011;56857;52.212;5.496;2023-05-23T11:06:29;15.00;;;2.78;;
69629;SDS011;56857;52.212;5.496;2023-05-23T11:14:16;14.82;;;3.05;;
69629;SDS011;56857;52.212;5.496;2023-05-23T11:16:42;13.02;;;3.00;;
69629;SDS011;56857;52.212;5.496;2023-05-23T11:21:45;9.73;;;2.38;;
69629;SDS011;56857;52.212;5.496;2023-05-23T11:24:14;14.52;;;2.55;;
69629;SDS011;56857;52.212;5.496;2023-05-23T11:26:40;17.67;;;3.45;;
69629;SDS011;56857;52.212;5.496;2023-05-23T11:29:16;9.50;;;2.70;;
69629;SDS011;56857;52.212;5.496;2023-05-23T11:31:42;12.77;;;3.05;;
69629;SDS011;56857;52.212;5.496;2023-05-23T11:34:08;15.55;;;2.63;;
69629;SDS011;56857;52.212;5.496;2023-05-23T11:36:33;17.77;;;2.85;;
69629;SDS011;56857;52.212;5.496;2023-05-23T11:39:02;12.82;;;2.53;;
69629;SDS011;56857;52.212;5.496;2023-05-23T11:41:29;10.00;;;2.75;;
69629;SDS011;56857;52.212;5.496;2023-05-23T11:43:55;14.38;;;2.63;;
69629;SDS011;56857;52.212;5.496;2023-05-23T11:46:20;11.02;;;2.38;;
69629;SDS011;56857;52.212;5.496;2023-05-23T11:48:49;13.68;;;2.47;;
69629;SDS011;56857;52.212;5.496;2023-05-23T11:51:17;10.73;;;2.28;;
69629;SDS011;56857;52.212;5.496;2023-05-23T11:53:43;12.55;;;2.00;;
69629;SDS011;56857;52.212;5.496;2023-05-23T11:56:08;15.43;;;2.70;;
69629;SDS011;56857;52.212;5.496;2023-05-23T11:58:34;13.27;;;2.45;;
69629;SDS011;56857;52.212;5.496;2023-05-23T12:01:03;9.45;;;2.15;;
69629;SDS011;56857;52.212;5.496;2023-05-23T12:03:29;11.35;;;2.00;;
69629;SDS011;56857;52.212;5.496;2023-05-23T12:05:56;12.98;;;3.08;;
69629;SDS011;56857;52.212;5.496;2023-05-23T12:08:22;11.73;;;2.17;;
69629;SDS011;56857;52.212;5.496;2023-05-23T12:10:52;13.60;;;2.70;;
69629;SDS011;56857;52.212;5.496;2023-05-23T12:13:22;12.82;;;2.08;;
69629;SDS011;56857;52.212;5.496;2023-05-23T12:15:53;14.35;;;2.78;;
69629;SDS011;56857;52.212;5.496;2023-05-23T12:18:24;12.43;;;2.22;;
69629;SDS011;56857;52.212;5.496;2023-05-23T12:20:52;13.88;;;2.97;;
69629;SDS011;56857;52.212;5.496;2023-05-23T12:23:21;10.38;;;2.25;;
69629;SDS011;56857;52.212;5.496;2023-05-23T12:25:53;13.82;;;2.92;;
69629;SDS011;56857;52.212;5.496;2023-05-23T12:28:20;11.18;;;2.50;;
69629;SDS011;56857;52.212;5.496;2023-05-23T12:31:07;10.73;;;2.35;;
69629;SDS011;56857;52.212;5.496;2023-05-23T12:33:36;13.13;;;2.78;;
69629;SDS011;56857;52.212;5.496;2023-05-23T12:36:03;12.70;;;2.63;;
69629;SDS011;56857;52.212;5.496;2023-05-23T12:38:29;10.50;;;2.10;;
69629;SDS011;56857;52.212;5.496;2023-05-23T12:41:08;13.40;;;2.30;;
69629;SDS011;56857;52.212;5.496;2023-05-23T12:43:40;11.93;;;2.33;;
69629;SDS011;56857;52.212;5.496;2023-05-23T12:46:21;8.48;;;1.83;;
69629;SDS011;56857;52.212;5.496;2023-05-23T12:48:47;10.52;;;2.20;;
69629;SDS011;56857;52.212;5.496;2023-05-23T12:51:13;8.60;;;1.98;;
69629;SDS011;56857;52.212;5.496;2023-05-23T12:53:39;15.43;;;2.78;;
69629;SDS011;56857;52.212;5.496;2023-05-23T12:56:04;10.13;;;2.60;;
69629;SDS011;56857;52.212;5.496;2023-05-23T12:58:30;14.95;;;2.78;;
69629;SDS011;56857;52.212;5.496;2023-05-23T13:00:55;11.00;;;2.20;;
69629;SDS011;56857;52.212;5.496;2023-05-23T13:03:21;9.73;;;2.47;;
69629;SDS011;56857;52.212;5.496;2023-05-23T13:05:47;14.80;;;2.85;;
69629;SDS011;56857;52.212;5.496;2023-05-23T13:08:13;9.07;;;2.50;;
69629;SDS011;56857;52.212;5.496;2023-05-23T13:10:38;11.43;;;2.25;;
69629;SDS011;56857;52.212;5.496;2023-05-23T13:13:05;13.20;;;2.50;;
69629;SDS011;56857;52.212;5.496;2023-05-23T13:15:31;10.85;;;2.25;;
69629;SDS011;56857;52.212;5.496;2023-05-23T13:17:57;10.23;;;2.45;;
69629;SDS011;56857;52.212;5.496;2023-05-23T13:20:22;12.45;;;2.70;;
69629;SDS011;56857;52.212;5.496;2023-05-23T13:22:47;15.77;;;3.35;;
69629;SDS011;56857;52.212;5.496;2023-05-23T13:25:13;14.93;;;2.40;;
69629;SDS011;56857;52.212;5.496;2023-05-23T13:27:38;11.00;;;2.85;;
69629;SDS011;56857;52.212;5.496;2023-05-23T13:30:04;10.95;;;2.60;;
69629;SDS011;56857;52.212;5.496;2023-05-23T13:32:30;7.60;;;2.35;;
69629;SDS011;56857;52.212;5.496;2023-05-23T13:34:55;12.23;;;2.67;;
69629;SDS011;56857;52.212;5.496;2023-05-23T13:37:20;6.53;;;2.10;;
69629;SDS011;56857;52.212;5.496;2023-05-23T13:39:46;10.38;;;2.10;;
69629;SDS011;56857;52.212;5.496;2023-05-23T13:42:14;11.40;;;3.13;;
69629;SDS011;56857;52.212;5.496;2023-05-23T13:44:40;11.70;;;2.38;;
69629;SDS011;56857;52.212;5.496;2023-05-23T13:47:14;11.45;;;2.25;;
69629;SDS011;56857;52.212;5.496;2023-05-23T13:49:40;11.27;;;2.42;;
69629;SDS011;56857;52.212;5.496;2023-05-23T13:52:06;13.70;;;3.22;;
69629;SDS011;56857;52.212;5.496;2023-05-23T13:54:31;14.10;;;2.78;;
69629;SDS011;56857;52.212;5.496;2023-05-23T13:56:57;16.45;;;2.95;;
69629;SDS011;56857;52.212;5.496;2023-05-23T13:59:26;15.20;;;2.60;;
69629;SDS011;56857;52.212;5.496;2023-05-23T14:01:51;15.65;;;3.05;;
69629;SDS011;56857;52.212;5.496;2023-05-23T14:04:17;10.65;;;2.30;;
69629;SDS011;56857;52.212;5.496;2023-05-23T14:06:42;15.35;;;3.28;;
69629;SDS011;56857;52.212;5.496;2023-05-23T14:09:08;9.10;;;2.25;;
69629;SDS011;56857;52.212;5.496;2023-05-23T14:11:33;10.23;;;2.15;;
69629;SDS011;56857;52.212;5.496;2023-05-23T14:13:59;11.68;;;2.78;;
69629;SDS011;56857;52.212;5.496;2023-05-23T14:16:24;11.10;;;2.42;;
69629;SDS011;56857;52.212;5.496;2023-05-23T14:18:52;9.82;;;2.25;;
69629;SDS011;56857;52.212;5.496;2023-05-23T14:21:18;9.18;;;1.77;;
69629;SDS011;56857;52.212;5.496;2023-05-23T14:23:43;9.18;;;2.05;;
69629;SDS011;56857;52.212;5.496;2023-05-23T14:26:08;10.57;;;2.13;;
69629;SDS011;56857;52.212;5.496;2023-05-23T14:28:33;12.77;;;2.90;;
69629;SDS011;56857;52.212;5.496;2023-05-23T14:30:59;16.45;;;2.60;;
69629;SDS011;56857;52.212;5.496;2023-05-23T14:33:24;15.10;;;2.55;;
69629;SDS011;56857;52.212;5.496;2023-05-23T14:35:50;15.57;;;2.35;;
69629;SDS011;56857;52.212;5.496;2023-05-23T14:38:16;14.35;;;2.90;;
69629;SDS011;56857;52.212;5.496;2023-05-23T14:40:41;11.60;;;2.40;;
69629;SDS011;56857;52.212;5.496;2023-05-23T14:43:08;9.43;;;1.80;;
69629;SDS011;56857;52.212;5.496;2023-05-23T14:45:34;8.90;;;2.15;;
69629;SDS011;56857;52.212;5.496;2023-05-23T14:47:59;10.52;;;2.20;;
69629;SDS011;56857;52.212;5.496;2023-05-23T14:50:25;12.43;;;2.60;;
69629;SDS011;56857;52.212;5.496;2023-05-23T14:52:51;10.48;;;2.20;;
69629;SDS011;56857;52.212;5.496;2023-05-23T14:55:16;12.95;;;2.75;;
69629;SDS011;56857;52.212;5.496;2023-05-23T14:57:42;10.95;;;2.50;;
69629;SDS011;56857;52.212;5.496;2023-05-23T15:00:07;11.43;;;2.55;;